Relevés horaires Jungfraujoch (Suisse)


Relevés horaires à Jungfraujoch - Dimanche 04 Janv. 2004
Heure UTC1 Température [°C] Vent [km/h] Hum. [%] Pres.4 [hPa] Visi. [Km] Nébu. [octa] Préc.5 [mm] Cond.
2m. Res. Ros. Dir.2 Vit. Moy. Raf.3
23:00 -13.9 -25.8 -35.7 NNO 38.9 -- -- 14 700 -- -- -- --
22:00 -14.2 -27.5 -31.6 ONO 50.0 -- -- 21 700 -- -- -- --
21:00 -15.7 -27.2 -28.1 ONO 31.5 46.3 83.3 33 700(1.8/3h) -- -- -- --
20:00 -15.9 -27.2 -28.5 ONO 29.6 -- -- 33 700 -- -- -- --
19:00 -17.4 -28.8 -21.6 NO 27.8 -- -- 70 700 -- -- -- --
18:00 -17.6 -31.3 -19.7 ONO 42.6 46.3 72.2 84 700(0.3/3h) 55 1/8 -- Poudrerie légère à modérée au-dessous du niveau de yeux
17:00 -17.7 -31.4 -19.7 NO 42.6 -- -- 84 700 -- -- -- --
15:00 -16.6 -28.7 -18.5 NO 33.3 44.4 72.2 85 700(0.3/3h) >70 1/8 -- Poudrerie légère à modérée au-dessous du niveau de yeux
14:00 -15.6 -27.6 -19.6 NO 35.2 -- -- 71 700 -- -- -- --
13:00 -16.4 -28.1 -20.3 NO 31.5 -- -- 72 700 -- -- -- --
12:00 -15.8 -27.9 -17.6 NO 35.2 37.0 61.1 86 700(0.1/3h) >70 1/8 -- Nappes de brume
11:00 -15.8 -27.6 -22.8 NO 33.3 -- -- 55 700 -- -- -- --
10:00 -15.4 -27.6 -25.0 ONO 37.0 -- -- 43 700 -- -- -- --
09:00 -15.4 -27.3 -31.8 ONO 35.2 -- 61.1 23 700(0.5/3h) >70 7/8 -- --
08:00 -15.9 -26.8 -36.5 NO 27.8 -- -- 15 700 -- -- -- --
07:00 -14.9 -26.1 -37.4 ONO 31.5 -- -- 13 700 -- -- -- --
06:00 -15.5 -26.6 -36.4 NO 29.6 -- -- 15 700(-0.3/3h) 55 1/8 -- --
05:00 -16.4 -27.2 -31.0 NO 25.9 -- -- 27 700 -- -- -- --
04:00 -14.8 -25.7 -34.5 NO 29.6 -- -- 17 700 -- -- -- --
03:00 -14.0 -24.4 -35.8 NO 27.8 -- -- 14 700 -- -- -- --
02:00 -14.2 -23.2 -34.1 NO 20.4 -- -- 17 700 -- -- -- --
01:00 -12.9 -21.2 -36.2 NO 18.5 -- -- 12 700 -- -- -- --
00:00 -12.8 -21.1 -35.5 NO 18.5 -- -- 13 700 -- -- -- --

1 Coordinated Universal Time. Actuellement il est 05:00 locale et 03:00 UTC.

2 Le vent souffle depuis la direction indiquée vers la direction oposée.

3 Les rafales max. sont disponible 40 min après l'heure du relevé.

4 Pour les stations d'altitude (plus de 600m) le géopotentiel du niveau le plus proche de la pression obligatoire est indiqué.

5 Les stations disposant d'un diffuseur peuvent indiquer "trace". Cela signifie que des précipitations ont touchés le sol mais que la quantité est inférieure à 0.1 mm.

Copyright

Les données affichées sur cette page sont la propriété exclusive de Météo Suisse.

Récapitulatif de la journée
Température [°C] Vent [km/h] Ensoleillement4 [h] Precipitations totale5 [mm] Pression [Hpa]
Min1 Max.2 Moy.3 Max. Min Max.
-16.9 -14.7 43.5 83.3 3 h 48 min 0 700.0 700.0

1 Température minimale relevée entre 18:00 UTC la veille et 18:00 UTC le jour donné.

2 Température maximale relevée entre 06:00 UTC le jour donné et 06:00 UTC le lendemain.

3 Vent moyen de la journée basé sur les relevés horaires.

4 Ensoleillement en heures relevé entre 06:00 UTC la veille et 06:00 UTC le jour donné.

5 Précipitations totales tombées entre 06:00 UTC la jour donné et 06:00 UTC le lendemain.

Graphiques horaires